createdAt,value
2023-03-21T00:04:40.925Z,100460.63
2023-03-21T00:09:46.819Z,100469.41
2023-03-21T00:14:47.621Z,100472.78
2023-03-21T00:19:51.179Z,100463.25
2023-03-21T00:24:53.619Z,100478.94
2023-03-21T00:29:54.614Z,100479.06
2023-03-21T00:35:11.900Z,100479.00
2023-03-21T00:40:27.820Z,100472.88
2023-03-21T00:45:30.017Z,100472.00
2023-03-21T00:50:32.401Z,100467.75
2023-03-21T00:55:35.186Z,100464.34
2023-03-21T01:00:37.479Z,100468.78
2023-03-21T01:05:58.065Z,100475.00
2023-03-21T01:11:04.176Z,100479.41
2023-03-21T01:16:07.171Z,100475.97
2023-03-21T01:21:13.401Z,100473.41
2023-03-21T01:26:16.974Z,100480.34
2023-03-21T01:31:18.971Z,100475.13
2023-03-21T01:36:23.886Z,100469.03
2023-03-21T01:41:46.990Z,100474.22
2023-03-21T01:47:10.927Z,100476.75
2023-03-21T01:52:38.025Z,100467.31
2023-03-21T01:58:03.871Z,100471.63
2023-03-21T02:03:16.919Z,100466.44
2023-03-21T02:08:38.828Z,100457.00
2023-03-21T02:13:45.842Z,100454.50
2023-03-21T02:18:57.412Z,100457.03
2023-03-21T02:24:23.005Z,100462.19
2023-03-21T02:29:42.141Z,100450.97
2023-03-21T02:35:04.066Z,100447.50
2023-03-21T02:40:12.749Z,100452.75
2023-03-21T02:45:19.668Z,100457.13
2023-03-21T02:50:33.498Z,100457.97
2023-03-21T02:55:38.531Z,100449.38
2023-03-21T03:00:39.801Z,100457.13
2023-03-21T03:05:44.727Z,100452.00
2023-03-21T03:10:56.952Z,100452.97
2023-03-21T03:16:12.033Z,100448.69
2023-03-21T03:21:21.031Z,100446.16
2023-03-21T03:26:27.499Z,100447.06
2023-03-21T03:31:34.414Z,100439.28
2023-03-21T03:36:40.449Z,100449.66
2023-03-21T03:42:07.810Z,100445.31
2023-03-21T03:47:32.237Z,100453.91
2023-03-21T03:52:50.137Z,100453.00
2023-03-21T03:57:57.902Z,100443.44
2023-03-21T04:02:59.194Z,100449.53
2023-03-21T04:08:00.661Z,100453.88
2023-03-21T04:13:11.153Z,100450.44
2023-03-21T04:18:18.998Z,100454.72
2023-03-21T04:23:20.671Z,100454.69
2023-03-21T04:28:24.477Z,100451.28
2023-03-21T04:33:47.936Z,100448.66
2023-03-21T04:38:49.164Z,100448.72
2023-03-21T04:43:52.597Z,100448.84
2023-03-21T04:48:54.295Z,100449.69
2023-03-21T04:53:57.534Z,100447.91
2023-03-21T04:59:00.862Z,100452.19
2023-03-21T05:04:03.697Z,100453.91
2023-03-21T05:09:07.100Z,100456.50
2023-03-21T05:14:12.378Z,100453.00
2023-03-21T05:19:13.987Z,100458.19
2023-03-21T05:24:18.377Z,100461.63
2023-03-21T05:29:21.782Z,100459.00
2023-03-21T05:34:42.214Z,100458.91
2023-03-21T05:39:43.607Z,100461.50
2023-03-21T05:44:52.277Z,100459.78
2023-03-21T05:49:58.619Z,100462.47
2023-03-21T05:54:59.576Z,100459.84
2023-03-21T06:00:03.780Z,100463.31
2023-03-21T06:05:16.098Z,100457.22
2023-03-21T06:10:17.363Z,100467.56
2023-03-21T06:15:22.925Z,100464.03
2023-03-21T06:20:32.033Z,100466.69
2023-03-21T06:25:40.794Z,100473.44
2023-03-21T06:30:43.180Z,100468.16
2023-03-21T06:35:53.247Z,100471.47
2023-03-21T06:40:54.211Z,100474.03
2023-03-21T06:45:58.900Z,100479.41
2023-03-21T06:51:00.585Z,100482.06
2023-03-21T06:56:03.272Z,100484.78
2023-03-21T07:01:08.213Z,100493.31
2023-03-21T07:06:17.053Z,100489.88
2023-03-21T07:11:18.325Z,100491.38
2023-03-21T07:16:22.216Z,100487.53
2023-03-21T07:21:23.482Z,100489.28
2023-03-21T07:26:24.437Z,100488.13
2023-03-21T07:31:27.982Z,100481.53
2023-03-21T07:36:29.285Z,100496.44
2023-03-21T07:41:29.954Z,100497.31
2023-03-21T07:46:44.931Z,100494.94
2023-03-21T07:51:45.618Z,100492.78
2023-03-21T07:56:46.497Z,100492.41
2023-03-21T08:01:48.537Z,100489.81
2023-03-21T08:06:51.492Z,100487.22
2023-03-21T08:11:52.216Z,100476.50
2023-03-21T08:16:54.305Z,100483.06
2023-03-21T08:21:55.150Z,100488.56
2023-03-21T08:26:55.893Z,100484.84
2023-03-21T08:31:58.227Z,100487.84
2023-03-21T08:36:59.224Z,100487.72
2023-03-21T08:41:59.979Z,100485.47
2023-03-21T08:47:02.211Z,100477.59
2023-03-21T08:52:03.163Z,100476.06
2023-03-21T08:57:03.996Z,100460.47
2023-03-21T09:02:06.118Z,100475.19
2023-03-21T09:07:06.931Z,100464.13
2023-03-21T09:12:07.852Z,100457.16
2023-03-21T09:17:09.883Z,100460.44
2023-03-21T09:22:14.295Z,100461.84
2023-03-21T09:27:15.789Z,100462.88
2023-03-21T09:32:18.644Z,100461.59
2023-03-21T09:37:21.246Z,100456.81
2023-03-21T09:42:34.671Z,100458.38
2023-03-21T09:47:45.441Z,100448.72
2023-03-21T09:52:50.701Z,100451.28
2023-03-21T09:57:58.613Z,100451.28
2023-03-21T10:03:06.858Z,100444.88
2023-03-21T10:08:10.688Z,100426.28
2023-03-21T10:13:16.348Z,100423.09
2023-03-21T10:18:24.052Z,100423.44
2023-03-21T10:23:29.719Z,100416.69
2023-03-21T10:34:03.786Z,100400.56
2023-03-21T10:39:14.124Z,100390.66
2023-03-21T10:44:17.411Z,100392.78
2023-03-21T10:49:21.602Z,100401.47
2023-03-21T10:54:27.846Z,100384.81
2023-03-21T10:59:36.756Z,100399.25
2023-03-21T11:04:39.725Z,100385.28
2023-03-21T11:09:50.025Z,100375.81
2023-03-21T11:14:52.173Z,100373.56
2023-03-21T11:19:58.404Z,100371.25
2023-03-21T11:25:01.687Z,100375.25
2023-03-21T11:30:05.255Z,100367.13
2023-03-21T11:35:15.142Z,100346.50
2023-03-21T11:40:25.711Z,100343.56
2023-03-21T11:45:29.093Z,100344.13
2023-03-21T11:50:35.421Z,100320.91
2023-03-21T11:55:47.337Z,100318.53
2023-03-21T12:00:57.217Z,100305.94
2023-03-21T12:06:02.672Z,100309.31
2023-03-21T12:11:11.926Z,100302.78
2023-03-21T12:16:27.778Z,100299.13
2023-03-21T12:21:35.901Z,100295.09
2023-03-21T12:26:44.322Z,100281.59
2023-03-21T12:31:57.638Z,100276.31
2023-03-21T12:37:14.681Z,100271.03
2023-03-21T12:42:43.035Z,100275.38
2023-03-21T12:47:48.761Z,100263.69
2023-03-21T12:52:55.157Z,100258.44
2023-03-21T12:58:03.245Z,100247.34
2023-03-21T13:03:11.619Z,100243.41
2023-03-21T13:08:21.020Z,100245.19
2023-03-21T13:13:27.167Z,100227.19
2023-03-21T13:18:36.738Z,100218.81
2023-03-21T13:23:40.281Z,100213.84
2023-03-21T13:28:43.193Z,100207.13
2023-03-21T13:33:47.324Z,100207.00
2023-03-21T13:38:53.116Z,100205.84
2023-03-21T13:43:55.530Z,100188.16
2023-03-21T13:48:59.927Z,100192.22
2023-03-21T13:54:04.407Z,100192.81
2023-03-21T13:59:10.851Z,100187.28
2023-03-21T14:04:15.559Z,100182.78
2023-03-21T14:09:23.716Z,100175.38
2023-03-21T14:14:27.828Z,100169.53
2023-03-21T14:19:33.094Z,100164.34
2023-03-21T14:24:35.121Z,100159.44
2023-03-21T14:29:36.672Z,100147.00
2023-03-21T14:34:38.470Z,100141.94
2023-03-21T14:39:40.504Z,100134.88
2023-03-21T14:44:57.847Z,100129.72
2023-03-21T14:50:00.975Z,100129.19
2023-03-21T14:55:06.400Z,100122.81
2023-03-21T15:00:12.550Z,100123.94
2023-03-21T15:05:19.784Z,100103.06
2023-03-21T15:10:22.171Z,100104.88
2023-03-21T15:15:27.580Z,100108.31
2023-03-21T15:20:32.827Z,100103.25
2023-03-21T15:25:37.230Z,100105.78
2023-03-21T15:30:38.220Z,100103.97
2023-03-21T15:35:41.696Z,100100.59
2023-03-21T15:40:44.726Z,100092.09
2023-03-21T15:45:49.870Z,100094.03
2023-03-21T15:50:57.011Z,100097.28
2023-03-21T15:56:01.999Z,100091.34
2023-03-21T16:01:07.161Z,100091.50
2023-03-21T16:06:18.900Z,100081.91
2023-03-21T16:11:26.076Z,100077.16
2023-03-21T16:16:28.485Z,100070.44
2023-03-21T16:21:31.117Z,100087.66
2023-03-21T16:26:34.483Z,100087.97
2023-03-21T16:31:37.252Z,100088.28
2023-03-21T16:36:40.335Z,100091.78
2023-03-21T16:41:42.353Z,100083.94
2023-03-21T16:46:43.012Z,100096.69
2023-03-21T16:51:43.770Z,100093.91
2023-03-21T16:56:47.916Z,100094.19
2023-03-21T17:01:49.081Z,100089.28
2023-03-21T17:06:51.829Z,100091.31
2023-03-21T17:11:53.879Z,100093.22
2023-03-21T17:16:55.172Z,100084.78
2023-03-21T17:21:56.212Z,100080.53
2023-03-21T17:26:58.586Z,100083.19
2023-03-21T17:31:59.333Z,100088.81
2023-03-21T17:37:00.395Z,100087.03
2023-03-21T17:42:02.405Z,100084.59
2023-03-21T17:47:03.088Z,100086.81
2023-03-21T17:52:04.091Z,100082.53
2023-03-21T17:57:06.149Z,100087.13
2023-03-21T18:02:07.053Z,100086.22
2023-03-21T18:07:16.161Z,100079.44
2023-03-21T18:12:22.968Z,100073.50
2023-03-21T18:17:23.684Z,100072.75
2023-03-21T18:22:24.644Z,100071.97
2023-03-21T18:27:27.035Z,100076.47
2023-03-21T18:32:30.265Z,100074.84
2023-03-21T18:37:31.810Z,100080.16
2023-03-21T18:42:33.867Z,100075.78
2023-03-21T18:47:34.974Z,100080.78
2023-03-21T18:52:36.168Z,100075.28
2023-03-21T18:57:39.255Z,100074.19
2023-03-21T19:02:45.555Z,100069.41
2023-03-21T19:07:48.169Z,100088.22
2023-03-21T19:12:51.756Z,100077.81
2023-03-21T19:23:17.248Z,100078.72
2023-03-21T19:28:19.719Z,100085.31
2023-03-21T19:33:21.042Z,100089.69
2023-03-21T19:38:21.734Z,100094.75
2023-03-21T19:43:32.860Z,100088.56
2023-03-21T19:48:34.186Z,100090.66
2023-03-21T19:53:34.950Z,100092.53
2023-03-21T19:58:37.124Z,100092.97
2023-03-21T20:03:38.041Z,100090.03
2023-03-21T20:09:05.786Z,100092.06
2023-03-21T20:14:03.041Z,100087.97
2023-03-21T20:19:06.667Z,100090.78
2023-03-21T20:24:08.586Z,100090.22
2023-03-21T20:30:03.818Z,100085.97
2023-03-21T20:34:32.038Z,100087.09
2023-03-21T20:39:32.731Z,100090.56
2023-03-21T20:44:52.328Z,100087.94
2023-03-21T20:49:56.767Z,100087.81
2023-03-21T20:54:58.331Z,100084.47
2023-03-21T21:00:00.539Z,100090.38
2023-03-21T21:05:24.562Z,100100.03
2023-03-21T21:10:23.135Z,100096.59
2023-03-21T21:15:25.224Z,100086.91
2023-03-21T21:20:26.719Z,100094.84
2023-03-21T21:25:30.387Z,100097.63
2023-03-21T21:30:34.327Z,100107.13
2023-03-21T21:35:35.917Z,100111.38
2023-03-21T21:40:37.399Z,100120.09
2023-03-21T21:45:40.043Z,100120.06
2023-03-21T21:50:42.299Z,100117.94
2023-03-21T21:55:43.032Z,100110.78
2023-03-21T22:00:45.963Z,100127.00
2023-03-21T22:05:46.706Z,100121.78
2023-03-21T22:10:47.629Z,100129.34
2023-03-21T22:15:49.625Z,100135.41
2023-03-21T22:20:50.508Z,100140.47
2023-03-21T22:25:52.307Z,100139.78
2023-03-21T22:30:54.611Z,100149.56
2023-03-21T22:35:55.280Z,100141.69
2023-03-21T22:40:56.292Z,100146.16
2023-03-21T22:45:58.314Z,100146.41
2023-03-21T22:50:59.637Z,100150.75
2023-03-21T22:56:00.448Z,100136.97
2023-03-21T23:01:05.193Z,100138.66
2023-03-21T23:06:06.223Z,100136.91
2023-03-21T23:11:07.885Z,100133.63
2023-03-21T23:16:10.453Z,100132.72
2023-03-21T23:21:13.842Z,100131.28
2023-03-21T23:26:14.562Z,100127.94
2023-03-21T23:31:19.728Z,100126.31
2023-03-21T23:36:21.802Z,100116.75
2023-03-21T23:41:24.532Z,100116.72
2023-03-21T23:46:26.544Z,100114.09
2023-03-21T23:51:27.213Z,100124.47
2023-03-21T23:56:28.268Z,100119.22
